地図

経路データ

SID SEASON NUMBER BASIN SUBBASIN NAME ISO_TIME NATURE LAT LON WMO_WIND WMO_PRES WMO_AGENCY TRACK_TYPE DIST2LAND LANDFALL IFLAG USA_AGENCY USA_ATCF_ID USA_LAT USA_LON USA_RECORD USA_STATUS USA_WIND USA_PRES USA_SSHS USA_R34_NE USA_R34_SE USA_R34_SW USA_R34_NW USA_R50_NE USA_R50_SE USA_R50_SW USA_R50_NW USA_R64_NE USA_R64_SE USA_R64_SW USA_R64_NW USA_POCI USA_ROCI USA_RMW USA_EYE TOKYO_LAT TOKYO_LON TOKYO_GRADE TOKYO_WIND TOKYO_PRES TOKYO_R50_DIR TOKYO_R50_LONG TOKYO_R50_SHORT TOKYO_R30_DIR TOKYO_R30_LONG TOKYO_R30_SHORT TOKYO_LAND CMA_LAT CMA_LON CMA_CAT CMA_WIND CMA_PRES HKO_LAT HKO_LON HKO_CAT HKO_WIND HKO_PRES NEWDELHI_LAT NEWDELHI_LON NEWDELHI_GRADE NEWDELHI_WIND NEWDELHI_PRES NEWDELHI_CI NEWDELHI_DP NEWDELHI_POCI REUNION_LAT REUNION_LON REUNION_TYPE REUNION_WIND REUNION_PRES REUNION_TNUM REUNION_CI REUNION_RMW REUNION_R34_NE REUNION_R34_SE REUNION_R34_SW REUNION_R34_NW REUNION_R50_NE REUNION_R50_SE REUNION_R50_SW REUNION_R50_NW REUNION_R64_NE REUNION_R64_SE REUNION_R64_SW REUNION_R64_NW BOM_LAT BOM_LON BOM_TYPE BOM_WIND BOM_PRES BOM_TNUM BOM_CI BOM_RMW BOM_R34_NE BOM_R34_SE BOM_R34_SW BOM_R34_NW BOM_R50_NE BOM_R50_SE BOM_R50_SW BOM_R50_NW BOM_R64_NE BOM_R64_SE BOM_R64_SW BOM_R64_NW BOM_ROCI BOM_POCI BOM_EYE BOM_POS_METHOD BOM_PRES_METHOD NADI_LAT NADI_LON NADI_CAT NADI_WIND NADI_PRES WELLINGTON_LAT WELLINGTON_LON WELLINGTON_WIND WELLINGTON_PRES DS824_LAT DS824_LON DS824_STAGE DS824_WIND DS824_PRES TD9636_LAT TD9636_LON TD9636_STAGE TD9636_WIND TD9636_PRES TD9635_LAT TD9635_LON TD9635_WIND TD9635_PRES TD9635_ROCI NEUMANN_LAT NEUMANN_LON NEUMANN_CLASS NEUMANN_WIND NEUMANN_PRES MLC_LAT MLC_LON MLC_CLASS MLC_WIND MLC_PRES USA_GUST BOM_GUST BOM_GUST_PER REUNION_GUST REUNION_GUST_PER USA_SEAHGT USA_SEARAD_NE USA_SEARAD_SE USA_SEARAD_SW USA_SEARAD_NW STORM_SPEED STORM_DIR
1933274N20290 1933 63 NA NA NOT_NAMED 1933-10-01 00:00:00 TS 20.5000 -70.4000 30 hurdat_atl main 81 81 O_____________ hurdat_atl AL161933 20.5000 -70.4000 TD 30 -1 3 315
1933274N20290 1933 63 NA NA NOT_NAMED 1933-10-01 03:00:00 TS 20.5925 -70.5000 main 90 89 P_____________ AL161933 20.5925 -70.5000 TD 30 -1 3 317
1933274N20290 1933 63 NA NA NOT_NAMED 1933-10-01 06:00:00 TS 20.7000 -70.6000 30 hurdat_atl main 100 100 O_____________ hurdat_atl AL161933 20.7000 -70.6000 TD 30 -1 3 322
1933274N20290 1933 63 NA NA NOT_NAMED 1933-10-01 09:00:00 TS 20.8350 -70.7000 main 111 111 P_____________ AL161933 20.8350 -70.7000 TD 30 -1 4 329
1933274N20290 1933 63 NA NA NOT_NAMED 1933-10-01 12:00:00 TS 21.0000 -70.8000 30 hurdat_atl main 134 134 O_____________ hurdat_atl AL161933 21.0000 -70.8000 TD 30 -1 4 333
1933274N20290 1933 63 NA NA NOT_NAMED 1933-10-01 15:00:00 TS 21.1850 -70.8926 main 156 156 P_____________ AL161933 21.1850 -70.8926 TD 32 -1 4 335
1933274N20290 1933 63 NA NA NOT_NAMED 1933-10-01 18:00:00 TS 21.4000 -71.0000 35 hurdat_atl main 178 178 O_____________ hurdat_atl AL161933 21.4000 -71.0000 TS 35 0 5 333
1933274N20290 1933 63 NA NA NOT_NAMED 1933-10-01 21:00:00 TS 21.6425 -71.1350 main 201 188 P_____________ AL161933 21.6425 -71.1350 TS 35 0 6 331
1933274N20290 1933 63 NA NA NOT_NAMED 1933-10-02 00:00:00 TS 21.9000 -71.3000 35 hurdat_atl main 192 184 O_____________ hurdat_atl AL161933 21.9000 -71.3000 TS 35 0 6 326
1933274N20290 1933 63 NA NA NOT_NAMED 1933-10-02 03:00:00 TS 22.1425 -71.5000 main 184 182 P_____________ AL161933 22.1425 -71.5000 TS 35 0 6 323
1933274N20290 1933 63 NA NA NOT_NAMED 1933-10-02 06:00:00 TS 22.4000 -71.7000 35 hurdat_atl main 189 189 O_____________ hurdat_atl AL161933 22.4000 -71.7000 TS 35 0 7 327
1933274N20290 1933 63 NA NA NOT_NAMED 1933-10-02 09:00:00 TS 22.7075 -71.9023 main 202 202 P_____________ AL161933 22.7075 -71.9023 TS 37 0 7 335
1933274N20290 1933 63 NA NA NOT_NAMED 1933-10-02 12:00:00 TS 23.0000 -72.0000 40 hurdat_atl main 226 226 O_____________ hurdat_atl AL161933 23.0000 -72.0000 TS 40 0 5 0
1933274N20290 1933 63 NA NA NOT_NAMED 1933-10-02 15:00:00 TS 23.2300 -71.9027 main 250 250 P_____________ AL161933 23.2300 -71.9027 TS 40 0 5 35
1933274N20290 1933 63 NA NA NOT_NAMED 1933-10-02 18:00:00 TS 23.4000 -71.7000 40 hurdat_atl main 279 279 O_____________ hurdat_atl AL161933 23.4000 -71.7000 TS 40 0 5 51
1933274N20290 1933 63 NA NA NOT_NAMED 1933-10-02 21:00:00 TS 23.5150 -71.5149 main 299 299 P_____________ AL161933 23.5150 -71.5149 TS 40 0 4 61
1933274N20290 1933 63 NA NA NOT_NAMED 1933-10-03 00:00:00 TS 23.6000 -71.3000 40 hurdat_atl main 320 320 O_____________ hurdat_atl AL161933 23.6000 -71.3000 TS 40 0 5 67
1933274N20290 1933 63 NA NA NOT_NAMED 1933-10-03 03:00:00 TS 23.7000 -71.0500 main 346 340 P_____________ AL161933 23.7000 -71.0500 TS 37 0 5 66
1933274N20290 1933 63 NA NA NOT_NAMED 1933-10-03 06:00:00 TS 23.8000 -70.8000 35 hurdat_atl main 368 368 O_____________ hurdat_atl AL161933 23.8000 -70.8000 TS 35 0 4 62
1933274N20290 1933 63 NA NA NOT_NAMED 1933-10-03 09:00:00 TS 23.8997 -70.6373 main 389 389 P_____________ AL161933 23.8997 -70.6373 TS 35 0 4 61
1933274N20290 1933 63 NA NA NOT_NAMED 1933-10-03 12:00:00 TS 24.0000 -70.4000 35 hurdat_atl main 411 411 O_____________ hurdat_atl AL161933 24.0000 -70.4000 TS 35 0 6 74
1933274N20290 1933 63 NA NA NOT_NAMED 1933-10-03 15:00:00 TS 24.0695 -69.9968 main 446 446 P_____________ AL161933 24.0695 -69.9968 TS 32 -1 9 78
1933274N20290 1933 63 NA NA NOT_NAMED 1933-10-03 18:00:00 TS 24.2000 -69.4000 30 hurdat_atl main 498 498 O_____________ hurdat_atl AL161933 24.2000 -69.4000 TD 30 -1 13 73
1933274N20290 1933 63 NA NA NOT_NAMED 1933-10-03 21:00:00 TS 24.4549 -68.6248 main 564 564 P_____________ AL161933 24.4549 -68.6248 TD 30 -1 17 69
1933274N20290 1933 63 NA NA NOT_NAMED 1933-10-04 00:00:00 TS 24.8000 -67.7000 30 hurdat_atl main 627 627 O_____________ hurdat_atl AL161933 24.8000 -67.7000 TD 30 -1 19 67
1933274N20290 1933 63 NA NA NOT_NAMED 1933-10-04 03:00:00 TS 25.1774 -66.7147 main 711 711 P_____________ AL161933 25.1774 -66.7147 TD 30 -1 20 66
1933274N20290 1933 63 NA NA NOT_NAMED 1933-10-04 06:00:00 TS 25.6000 -65.7000 30 hurdat_atl main 795 795 O_____________ hurdat_atl AL161933 25.6000 -65.7000 TD 30 -1 20 64
1933274N20290 1933 63 NA NA NOT_NAMED 1933-10-04 09:00:00 TS 26.0419 -64.7345 main 854 854 P_____________ AL161933 26.0419 -64.7345 TD 30 -1 19 62
1933274N20290 1933 63 NA NA NOT_NAMED 1933-10-04 12:00:00 TS 26.5000 -63.8000 30 hurdat_atl main 924 924 O_____________ hurdat_atl AL161933 26.5000 -63.8000 TD 30 -1 19 61
1933274N20290 1933 63 NA NA NOT_NAMED 1933-10-04 15:00:00 TS 26.9536 -62.8938 main 1000 1000 P_____________ AL161933 26.9536 -62.8938 TD 30 -1 18 61
1933274N20290 1933 63 NA NA NOT_NAMED 1933-10-04 18:00:00 TS 27.4000 -62.0000 30 hurdat_atl main 1071 O_____________ hurdat_atl AL161933 27.4000 -62.0000 TD 30 -1 18 61

IBTrACS Databaseについて

本データベースは、米国NOAAが公開する1842年以降の世界の熱帯低気圧のベストトラックデータアーカイブInternational Best Track Archive for Climate Stewardship (IBTrACS)を、ウェブで閲覧しやすい形式に変換したものです。

最終更新日:2021-10-08